createdAt,value
2022-09-16T00:01:37.034Z,60.04
2022-09-16T00:04:03.556Z,60.86
2022-09-16T00:06:30.325Z,60.74
2022-09-16T00:08:58.615Z,59.99
2022-09-16T00:11:25.179Z,62.81
2022-09-16T00:13:51.826Z,61.23
2022-09-16T00:16:24.604Z,61.71
2022-09-16T00:18:55.718Z,61.22
2022-09-16T00:21:23.078Z,61.45
2022-09-16T00:23:49.596Z,60.49
2022-09-16T00:26:16.188Z,61.97
2022-09-16T00:28:43.263Z,61.71
2022-09-16T00:31:09.795Z,60.85
2022-09-16T00:33:36.427Z,60.89
2022-09-16T00:36:11.338Z,61.56
2022-09-16T00:38:38.580Z,61.38
2022-09-16T00:41:06.164Z,60.84
2022-09-16T00:43:53.987Z,60.71
2022-09-16T00:46:27.725Z,60.82
2022-09-16T00:48:54.527Z,61.58
2022-09-16T00:51:22.094Z,60.96
2022-09-16T00:53:56.975Z,60.83
2022-09-16T00:56:26.310Z,59.11
2022-09-16T00:59:09.943Z,60.35
2022-09-16T01:01:37.156Z,60.09
2022-09-16T01:04:14.086Z,59.31
2022-09-16T01:06:40.645Z,59.50
2022-09-16T01:09:07.317Z,59.23
2022-09-16T01:11:34.064Z,60.45
2022-09-16T01:14:21.000Z,59.29
2022-09-16T01:16:58.214Z,59.42
2022-09-16T01:19:55.597Z,60.22
2022-09-16T01:22:29.607Z,60.39
2022-09-16T01:25:11.431Z,61.01
2022-09-16T01:27:51.766Z,60.33
2022-09-16T01:30:18.487Z,60.44
2022-09-16T01:32:58.763Z,59.32
2022-09-16T01:35:36.108Z,60.42
2022-09-16T01:38:20.872Z,61.47
2022-09-16T01:41:07.261Z,61.94
2022-09-16T01:43:44.838Z,60.34
2022-09-16T01:46:23.094Z,62.63
2022-09-16T01:48:58.665Z,62.04
2022-09-16T01:51:31.802Z,62.06
2022-09-16T01:54:12.621Z,62.10
2022-09-16T01:57:03.923Z,62.51
2022-09-16T02:00:06.635Z,62.49
2022-09-16T02:02:39.237Z,60.71
2022-09-16T02:05:09.820Z,60.88
2022-09-16T02:07:47.703Z,61.24
2022-09-16T02:10:20.839Z,59.76
2022-09-16T02:12:49.882Z,60.29
2022-09-16T02:15:22.095Z,59.69
2022-09-16T02:17:57.649Z,59.22
2022-09-16T02:20:27.668Z,58.24
2022-09-16T02:22:59.470Z,58.75
2022-09-16T02:25:26.746Z,58.25
2022-09-16T02:27:54.080Z,60.46
2022-09-16T02:30:22.049Z,59.17
2022-09-16T02:33:03.742Z,59.82
2022-09-16T02:35:31.443Z,60.53
2022-09-16T02:38:04.887Z,60.37
2022-09-16T02:40:37.537Z,61.49
2022-09-16T02:43:04.261Z,61.56
2022-09-16T02:45:47.250Z,60.82
2022-09-16T02:48:23.063Z,59.59
2022-09-16T02:50:59.834Z,60.68
2022-09-16T02:53:52.930Z,59.91
2022-09-16T02:56:27.633Z,60.39
2022-09-16T02:58:54.113Z,60.03
2022-09-16T03:01:22.041Z,61.05
2022-09-16T03:03:48.944Z,61.20
2022-09-16T03:06:17.619Z,60.85
2022-09-16T03:08:45.222Z,61.94
2022-09-16T03:11:32.071Z,63.31
2022-09-16T03:14:01.506Z,64.03
2022-09-16T03:16:46.139Z,62.57
2022-09-16T03:19:24.948Z,63.59
2022-09-16T03:22:15.266Z,62.69
2022-09-16T03:25:00.786Z,63.29
2022-09-16T03:27:34.538Z,63.15
2022-09-16T03:30:09.319Z,64.99
2022-09-16T03:32:58.392Z,62.90
2022-09-16T03:35:32.179Z,64.29
2022-09-16T03:37:59.921Z,63.62
2022-09-16T03:40:29.838Z,64.96
2022-09-16T03:42:57.874Z,66.62
2022-09-16T03:45:24.513Z,66.13
2022-09-16T03:47:52.460Z,65.14
2022-09-16T03:50:20.373Z,64.54
2022-09-16T03:52:47.117Z,63.16
2022-09-16T03:55:13.813Z,63.95
2022-09-16T03:57:40.826Z,64.06
2022-09-16T04:00:08.621Z,62.99
2022-09-16T04:02:35.942Z,64.84
2022-09-16T04:05:03.638Z,64.39
2022-09-16T04:07:33.493Z,63.76
2022-09-16T04:10:00.205Z,63.00
2022-09-16T04:12:27.062Z,64.00
2022-09-16T04:14:53.557Z,62.62
2022-09-16T04:17:20.040Z,63.09
2022-09-16T04:19:46.499Z,62.70
2022-09-16T04:22:12.961Z,64.24
2022-09-16T04:24:39.421Z,63.97
2022-09-16T04:27:05.933Z,64.49
2022-09-16T04:29:32.835Z,65.12
2022-09-16T04:31:59.335Z,63.65
2022-09-16T04:34:25.966Z,64.66
2022-09-16T04:36:52.407Z,63.99
2022-09-16T04:39:19.544Z,63.88
2022-09-16T04:41:46.050Z,63.02
2022-09-16T04:44:12.770Z,62.93
2022-09-16T04:46:39.308Z,63.06
2022-09-16T04:49:06.573Z,64.46
2022-09-16T04:51:33.244Z,63.96
2022-09-16T04:54:00.089Z,63.64
2022-09-16T04:56:28.980Z,62.36
2022-09-16T04:58:58.367Z,64.20
2022-09-16T05:01:27.353Z,63.86
2022-09-16T05:03:56.976Z,63.50
2022-09-16T05:06:30.018Z,63.15
2022-09-16T05:08:57.591Z,64.69
2022-09-16T05:11:27.366Z,64.52
2022-09-16T05:13:54.626Z,64.97
2022-09-16T05:16:22.888Z,63.80
2022-09-16T05:18:51.068Z,64.92
2022-09-16T05:21:19.740Z,66.62
2022-09-16T05:23:47.381Z,66.63
2022-09-16T05:26:17.098Z,65.64
2022-09-16T05:28:43.709Z,66.01
2022-09-16T05:31:15.016Z,64.94
2022-09-16T05:33:43.700Z,65.16
2022-09-16T05:36:15.773Z,64.92
2022-09-16T05:38:54.313Z,64.00
2022-09-16T05:41:29.253Z,64.45
2022-09-16T05:43:59.367Z,64.95
2022-09-16T05:46:26.376Z,67.13
2022-09-16T05:48:53.162Z,68.84
2022-09-16T05:51:21.872Z,69.41
2022-09-16T05:53:49.858Z,68.73
2022-09-16T05:56:25.788Z,68.46
2022-09-16T05:58:57.933Z,68.09
2022-09-16T06:01:27.236Z,69.26
2022-09-16T06:03:55.071Z,70.95
2022-09-16T06:06:44.896Z,71.76
2022-09-16T06:09:17.586Z,72.54
2022-09-16T06:11:49.035Z,72.77
2022-09-16T06:14:16.589Z,73.91
2022-09-16T06:16:43.750Z,74.12
2022-09-16T06:19:14.463Z,72.56
2022-09-16T06:21:41.966Z,73.58
2022-09-16T06:24:09.022Z,73.36
2022-09-16T06:26:37.994Z,74.83
2022-09-16T06:29:05.707Z,75.72
2022-09-16T06:31:32.717Z,75.59
2022-09-16T06:33:59.267Z,75.44
2022-09-16T06:36:29.966Z,74.20
2022-09-16T06:38:56.751Z,72.82
2022-09-16T06:41:24.107Z,73.52
2022-09-16T06:43:52.024Z,72.67
2022-09-16T06:46:24.670Z,72.84
2022-09-16T06:48:53.940Z,72.54
2022-09-16T06:51:25.703Z,70.35
2022-09-16T06:53:53.398Z,70.78
2022-09-16T06:56:21.110Z,71.02
2022-09-16T06:58:49.477Z,70.76
2022-09-16T07:01:18.344Z,70.39
2022-09-16T07:03:47.551Z,69.30
2022-09-16T07:06:15.261Z,68.56
2022-09-16T07:08:42.360Z,68.03
2022-09-16T07:11:14.175Z,67.93
2022-09-16T07:13:41.210Z,68.01
2022-09-16T07:16:13.313Z,68.08
2022-09-16T07:18:40.929Z,67.47
2022-09-16T07:21:10.421Z,67.39
2022-09-16T07:23:37.952Z,65.68
2022-09-16T07:26:08.849Z,64.71
2022-09-16T07:28:36.429Z,65.52
2022-09-16T07:31:04.999Z,66.22
2022-09-16T07:33:33.334Z,66.69
2022-09-16T07:36:00.796Z,66.65
2022-09-16T07:38:29.078Z,66.12
2022-09-16T07:40:55.884Z,63.56
2022-09-16T07:43:22.429Z,62.14
2022-09-16T07:45:56.439Z,62.22
2022-09-16T07:48:23.029Z,62.52
2022-09-16T07:51:01.616Z,63.88
2022-09-16T07:53:29.738Z,66.28
2022-09-16T07:55:57.301Z,65.25
2022-09-16T07:58:23.820Z,64.44
2022-09-16T08:00:50.521Z,62.59
2022-09-16T08:03:17.832Z,63.99
2022-09-16T08:05:44.873Z,62.41
2022-09-16T08:08:11.412Z,63.37
2022-09-16T08:10:38.216Z,63.14
2022-09-16T08:13:06.059Z,61.47
2022-09-16T08:15:33.214Z,60.53
2022-09-16T08:17:59.875Z,61.28
2022-09-16T08:20:27.125Z,61.17
2022-09-16T08:22:57.420Z,59.44
2022-09-16T08:25:25.113Z,61.34
2022-09-16T08:27:54.158Z,61.98
2022-09-16T08:30:23.329Z,60.68
2022-09-16T08:32:57.081Z,58.70
2022-09-16T08:35:23.929Z,57.35
2022-09-16T08:37:50.509Z,56.67
2022-09-16T08:42:59.281Z,55.35
2022-09-16T08:45:56.793Z,56.67
2022-09-16T08:48:52.606Z,55.93
2022-09-16T08:51:20.228Z,57.37
2022-09-16T08:54:02.490Z,54.41
2022-09-16T08:56:31.806Z,54.78
2022-09-16T08:59:01.170Z,53.59
2022-09-16T09:01:50.602Z,52.86
2022-09-16T09:04:17.483Z,51.12
2022-09-16T09:06:44.034Z,49.50
2022-09-16T09:09:35.547Z,47.05
2022-09-16T09:12:08.991Z,45.42
2022-09-16T09:14:43.276Z,46.03
2022-09-16T09:17:26.948Z,44.99
2022-09-16T09:20:10.538Z,41.72
2022-09-16T09:23:01.931Z,43.75
2022-09-16T09:25:40.070Z,45.06
2022-09-16T09:28:17.312Z,44.63
2022-09-16T09:30:53.651Z,42.37
2022-09-16T09:33:46.890Z,43.52
2022-09-16T09:36:41.935Z,37.94
2022-09-16T09:39:11.445Z,32.81
2022-09-16T09:41:46.651Z,29.22
2022-09-16T09:44:40.814Z,24.47
2022-09-16T09:47:27.685Z,23.88
2022-09-16T09:49:57.752Z,28.74
2022-09-16T09:52:44.211Z,27.02
2022-09-16T09:55:19.329Z,25.79
2022-09-16T09:58:01.127Z,30.79
2022-09-16T10:00:28.097Z,32.98
2022-09-16T10:03:03.988Z,28.49
2022-09-16T10:05:31.201Z,33.01
2022-09-16T10:08:00.380Z,34.23
2022-09-16T10:10:31.386Z,36.55
2022-09-16T10:13:07.676Z,39.58
2022-09-16T10:15:35.216Z,40.49
2022-09-16T10:18:03.206Z,40.45
2022-09-16T10:20:38.158Z,41.21
2022-09-16T10:23:16.536Z,40.79
2022-09-16T10:25:43.784Z,34.41
2022-09-16T10:28:23.355Z,25.80
2022-09-16T10:30:52.699Z,18.42
2022-09-16T10:33:29.273Z,16.81
2022-09-16T10:36:10.275Z,14.43
2022-09-16T10:38:42.197Z,14.62
2022-09-16T10:41:16.465Z,16.21
2022-09-16T10:44:06.913Z,15.42
2022-09-16T10:46:33.960Z,19.44
2022-09-16T10:49:02.813Z,22.59
2022-09-16T10:51:31.287Z,26.74
2022-09-16T10:54:00.714Z,29.73
2022-09-16T10:56:29.557Z,40.56
2022-09-16T10:59:09.606Z,52.27
2022-09-16T11:02:04.545Z,59.32
2022-09-16T11:04:40.369Z,64.61
2022-09-16T11:07:31.760Z,67.57
2022-09-16T11:10:09.699Z,68.28
2022-09-16T11:12:55.270Z,66.29
2022-09-16T11:15:41.111Z,68.24
2022-09-16T11:18:19.953Z,65.88
2022-09-16T11:20:53.007Z,65.90
2022-09-16T11:23:47.442Z,65.16
2022-09-16T11:26:26.050Z,63.03
2022-09-16T11:29:03.617Z,55.95
2022-09-16T11:31:39.502Z,50.88
2022-09-16T11:34:25.211Z,46.65
2022-09-16T11:37:14.527Z,41.57
2022-09-16T11:39:59.382Z,40.08
2022-09-16T11:42:39.112Z,42.37
2022-09-16T11:45:35.327Z,44.28
2022-09-16T11:48:26.766Z,46.95
2022-09-16T11:51:05.563Z,50.58
2022-09-16T11:53:45.858Z,53.39
2022-09-16T11:56:15.300Z,58.37
2022-09-16T11:58:54.541Z,59.54
2022-09-16T12:01:42.949Z,59.87
2022-09-16T12:04:16.718Z,61.79
2022-09-16T12:06:55.346Z,61.25
2022-09-16T12:09:35.079Z,63.37
2022-09-16T12:12:14.917Z,63.62
2022-09-16T12:14:45.618Z,60.76
2022-09-16T12:17:22.446Z,60.60
2022-09-16T12:20:10.953Z,62.50
2022-09-16T12:22:45.766Z,62.07
2022-09-16T12:25:28.314Z,61.62
2022-09-16T12:28:03.646Z,61.32
2022-09-16T12:30:36.366Z,60.35
2022-09-16T12:33:16.937Z,60.20
2022-09-16T12:36:09.474Z,61.42
2022-09-16T12:38:36.108Z,62.48
2022-09-16T12:41:27.382Z,61.72
2022-09-16T12:44:33.855Z,60.13
2022-09-16T12:47:21.229Z,56.63
2022-09-16T12:49:56.792Z,55.07
2022-09-16T12:52:29.533Z,55.30
2022-09-16T12:55:26.803Z,55.84
2022-09-16T12:58:14.681Z,58.61
2022-09-16T13:00:53.486Z,60.08
2022-09-16T13:03:27.544Z,61.03
2022-09-16T13:05:56.968Z,61.10
2022-09-16T13:08:33.895Z,62.42
2022-09-16T13:11:41.197Z,61.12
2022-09-16T13:13:54.306Z,61.00
2022-09-16T13:16:30.627Z,59.79
2022-09-16T13:19:24.656Z,59.42
2022-09-16T13:21:56.096Z,57.40
2022-09-16T13:24:39.033Z,57.32
2022-09-16T13:27:36.169Z,54.98
2022-09-16T13:30:08.602Z,53.79
2022-09-16T13:32:43.498Z,54.14
2022-09-16T13:35:19.078Z,55.80
2022-09-16T13:37:50.129Z,54.75
2022-09-16T13:40:25.726Z,56.66
2022-09-16T13:43:09.321Z,54.95
2022-09-16T13:45:45.621Z,53.41
2022-09-16T13:48:24.634Z,53.61
2022-09-16T13:50:57.883Z,54.32
2022-09-16T13:53:29.504Z,54.70
2022-09-16T13:56:01.151Z,55.11
2022-09-16T13:58:36.400Z,54.40
2022-09-16T14:01:27.912Z,54.19
2022-09-16T14:04:13.169Z,55.01
2022-09-16T14:06:49.171Z,54.68
2022-09-16T14:09:45.503Z,55.98
2022-09-16T14:12:48.592Z,55.30
2022-09-16T14:15:16.243Z,56.39
2022-09-16T14:17:50.966Z,55.50
2022-09-16T14:20:21.756Z,54.23
2022-09-16T14:22:48.532Z,55.96
2022-09-16T14:25:34.755Z,55.67
2022-09-16T14:28:28.092Z,55.38
2022-09-16T14:30:56.018Z,55.66
2022-09-16T14:33:26.922Z,55.86
2022-09-16T14:35:55.610Z,55.29
2022-09-16T14:38:44.949Z,53.27
2022-09-16T14:41:28.862Z,55.05
2022-09-16T14:44:02.549Z,54.28
2022-09-16T14:46:29.146Z,54.98
2022-09-16T14:48:56.291Z,54.62
2022-09-16T14:51:25.196Z,54.55
2022-09-16T14:54:11.786Z,54.78
2022-09-16T14:56:40.039Z,52.57
2022-09-16T14:59:10.550Z,53.29
2022-09-16T15:01:37.211Z,53.27
2022-09-16T15:04:08.724Z,52.24
2022-09-16T15:06:43.548Z,52.60
2022-09-16T15:09:23.677Z,52.72
2022-09-16T15:11:57.988Z,51.06
2022-09-16T15:14:24.707Z,52.42
2022-09-16T15:16:56.065Z,51.88
2022-09-16T15:19:28.130Z,51.31
2022-09-16T15:21:54.882Z,51.02
2022-09-16T15:24:24.877Z,51.84
2022-09-16T15:26:54.089Z,52.42
2022-09-16T15:29:20.915Z,52.54
2022-09-16T15:31:47.855Z,53.80
2022-09-16T15:34:23.290Z,54.85
2022-09-16T15:36:54.753Z,55.50
2022-09-16T15:39:24.304Z,56.27
2022-09-16T15:42:04.918Z,55.71
2022-09-16T15:44:36.963Z,56.30
2022-09-16T15:47:04.388Z,55.80
2022-09-16T15:49:33.769Z,55.65
2022-09-16T15:52:08.685Z,56.31
2022-09-16T15:54:45.066Z,58.26
2022-09-16T15:57:23.062Z,58.11
2022-09-16T16:00:10.788Z,58.70
2022-09-16T16:02:40.257Z,59.91
2022-09-16T16:05:11.871Z,60.40
2022-09-16T16:07:50.453Z,60.28
2022-09-16T16:10:20.768Z,59.95
2022-09-16T16:12:51.922Z,61.45
2022-09-16T16:15:25.222Z,62.75
2022-09-16T16:17:53.565Z,62.56
2022-09-16T16:20:21.805Z,62.02
2022-09-16T16:22:49.059Z,61.67
2022-09-16T16:25:15.832Z,61.59
2022-09-16T16:27:45.771Z,61.25
2022-09-16T16:30:12.589Z,60.80
2022-09-16T16:32:41.984Z,60.68
2022-09-16T16:35:08.866Z,60.22
2022-09-16T16:37:50.679Z,58.83
2022-09-16T16:40:17.400Z,58.45
2022-09-16T16:42:44.322Z,58.36
2022-09-16T16:45:14.543Z,58.44
2022-09-16T16:47:42.024Z,58.29
2022-09-16T16:50:09.069Z,58.46
2022-09-16T16:52:35.648Z,57.62
2022-09-16T16:55:02.116Z,57.55
2022-09-16T16:57:28.646Z,58.17
2022-09-16T16:59:55.142Z,59.52
2022-09-16T17:02:21.782Z,59.49
2022-09-16T17:04:48.297Z,59.57
2022-09-16T17:07:25.609Z,59.78
2022-09-16T17:09:53.788Z,60.41
2022-09-16T17:12:20.632Z,60.05
2022-09-16T17:14:47.246Z,59.54
2022-09-16T17:17:13.743Z,59.23
2022-09-16T17:19:40.239Z,58.56
2022-09-16T17:22:06.831Z,58.46
2022-09-16T17:24:34.633Z,57.80
2022-09-16T17:27:01.502Z,57.19
2022-09-16T17:29:28.007Z,57.91
2022-09-16T17:31:56.889Z,56.58
2022-09-16T17:34:23.762Z,58.53
2022-09-16T17:36:50.240Z,59.29
2022-09-16T17:39:19.078Z,59.08
2022-09-16T17:41:48.563Z,59.65
2022-09-16T17:44:15.818Z,59.37
2022-09-16T17:46:43.088Z,59.52
2022-09-16T17:49:23.750Z,60.34
2022-09-16T17:51:51.439Z,60.20
2022-09-16T17:54:18.248Z,60.61
2022-09-16T17:56:45.301Z,60.65
2022-09-16T17:59:13.288Z,59.76
2022-09-16T18:01:40.184Z,60.00
2022-09-16T18:04:07.446Z,60.25
2022-09-16T18:06:45.466Z,60.14
2022-09-16T18:09:13.081Z,59.32
2022-09-16T18:11:39.967Z,59.85
2022-09-16T18:14:10.030Z,61.24
2022-09-16T18:16:36.614Z,61.85
2022-09-16T18:19:04.135Z,62.69
2022-09-16T18:21:31.421Z,62.93
2022-09-16T18:24:00.327Z,62.65
2022-09-16T18:26:27.352Z,62.74
2022-09-16T18:29:11.533Z,63.57
2022-09-16T18:31:46.849Z,63.30
2022-09-16T18:34:13.851Z,64.30
2022-09-16T18:36:40.784Z,64.62
2022-09-16T18:39:11.509Z,64.43
2022-09-16T18:41:40.464Z,65.00
2022-09-16T18:44:12.793Z,64.38
2022-09-16T18:46:39.582Z,63.77
2022-09-16T18:49:06.660Z,64.19
2022-09-16T18:51:38.450Z,64.50
2022-09-16T18:54:11.439Z,64.03
2022-09-16T18:56:39.029Z,62.93
2022-09-16T18:59:23.950Z,62.60
2022-09-16T19:01:56.874Z,63.71
2022-09-16T19:04:27.173Z,64.18
2022-09-16T19:06:59.199Z,64.21
2022-09-16T19:09:25.835Z,64.59
2022-09-16T19:11:53.957Z,65.26
2022-09-16T19:14:24.151Z,64.88
2022-09-16T19:16:50.806Z,64.17
2022-09-16T19:19:17.308Z,64.29
2022-09-16T19:21:44.315Z,64.69
2022-09-16T19:24:14.071Z,65.69
2022-09-16T19:26:42.129Z,66.36
2022-09-16T19:29:08.989Z,66.28
2022-09-16T19:31:38.054Z,67.36
2022-09-16T19:34:05.406Z,67.03
2022-09-16T19:36:32.710Z,67.02
2022-09-16T19:38:59.995Z,67.02
2022-09-16T19:41:29.802Z,66.36
2022-09-16T19:43:58.279Z,65.81
2022-09-16T19:46:25.920Z,65.40
2022-09-16T19:48:52.732Z,64.85
2022-09-16T19:51:22.614Z,64.41
2022-09-16T19:53:49.640Z,64.06
2022-09-16T19:56:21.221Z,64.12
2022-09-16T19:58:48.492Z,63.44
2022-09-16T20:01:18.064Z,63.19
2022-09-16T20:03:45.071Z,62.71
2022-09-16T20:06:14.498Z,62.92
2022-09-16T20:08:42.427Z,63.57
2022-09-16T20:11:14.406Z,63.83
2022-09-16T20:13:41.006Z,64.55
2022-09-16T20:16:09.379Z,64.84
2022-09-16T20:18:36.544Z,65.53
2022-09-16T20:21:08.268Z,65.83
2022-09-16T20:23:35.162Z,66.00
2022-09-16T20:26:04.023Z,65.76
2022-09-16T20:28:34.725Z,64.90
2022-09-16T20:31:01.863Z,64.73
2022-09-16T20:33:33.102Z,64.45
2022-09-16T20:36:08.256Z,64.32
2022-09-16T20:38:34.953Z,64.84
2022-09-16T20:41:09.229Z,64.95
2022-09-16T20:43:36.342Z,64.70
2022-09-16T20:46:05.021Z,63.56
2022-09-16T20:48:31.775Z,64.78
2022-09-16T20:51:06.666Z,64.70
2022-09-16T20:53:36.146Z,65.89
2022-09-16T20:56:04.635Z,66.43
2022-09-16T20:58:31.349Z,67.41
2022-09-16T21:01:06.645Z,66.61
2022-09-16T21:03:33.855Z,66.44
2022-09-16T21:06:07.777Z,67.87
2022-09-16T21:08:36.883Z,67.63
2022-09-16T21:11:07.103Z,67.82
2022-09-16T21:13:34.211Z,68.28
2022-09-16T21:16:00.856Z,67.68
2022-09-16T21:18:27.958Z,67.76
2022-09-16T21:21:04.627Z,68.06
2022-09-16T21:23:32.426Z,68.48
2022-09-16T21:26:16.169Z,67.36
2022-09-16T21:28:43.454Z,68.08
2022-09-16T21:31:13.332Z,67.89
2022-09-16T21:33:41.714Z,68.73
2022-09-16T21:36:10.403Z,67.97
2022-09-16T21:38:38.600Z,68.05
2022-09-16T21:41:13.665Z,69.16
2022-09-16T21:43:43.012Z,68.61
2022-09-16T21:46:11.748Z,68.72
2022-09-16T21:48:38.531Z,68.94
2022-09-16T21:51:12.974Z,70.74
2022-09-16T21:53:43.203Z,72.15
2022-09-16T21:56:15.419Z,72.22
2022-09-16T21:58:42.673Z,72.24
2022-09-16T22:01:11.368Z,72.93
2022-09-16T22:03:39.749Z,72.32
2022-09-16T22:06:07.673Z,72.65
2022-09-16T22:08:34.709Z,72.02
2022-09-16T22:11:07.264Z,70.63
2022-09-16T22:13:34.426Z,71.02
2022-09-16T22:16:01.913Z,71.87
2022-09-16T22:18:30.174Z,71.73
2022-09-16T22:21:02.336Z,70.97
2022-09-16T22:23:28.798Z,72.10
2022-09-16T22:25:55.270Z,71.89
2022-09-16T22:28:21.703Z,73.60
2022-09-16T22:30:48.289Z,75.84
2022-09-16T22:33:14.776Z,76.63
2022-09-16T22:35:41.300Z,77.67
2022-09-16T22:38:07.822Z,77.89
2022-09-16T22:40:34.494Z,77.98
2022-09-16T22:43:01.027Z,79.07
2022-09-16T22:45:27.481Z,80.39
2022-09-16T22:47:54.002Z,80.21
2022-09-16T22:50:20.483Z,81.01
2022-09-16T22:52:47.068Z,81.93
2022-09-16T22:55:13.614Z,80.95
2022-09-16T22:57:40.043Z,81.04
2022-09-16T23:00:07.055Z,80.76
2022-09-16T23:02:33.518Z,81.65
2022-09-16T23:05:00.180Z,82.82
2022-09-16T23:07:26.819Z,83.39
2022-09-16T23:09:53.354Z,82.85
2022-09-16T23:12:19.900Z,83.22
2022-09-16T23:14:46.395Z,83.15
2022-09-16T23:17:12.930Z,84.02
2022-09-16T23:19:39.393Z,84.84
2022-09-16T23:22:06.054Z,85.46
2022-09-16T23:24:32.545Z,84.20
2022-09-16T23:26:59.376Z,84.26
2022-09-16T23:29:25.831Z,85.25
2022-09-16T23:31:52.841Z,85.83
2022-09-16T23:34:21.397Z,86.92
2022-09-16T23:36:48.804Z,86.28
2022-09-16T23:39:16.224Z,85.79
2022-09-16T23:41:43.499Z,85.37
2022-09-16T23:44:13.036Z,85.24
2022-09-16T23:46:39.597Z,84.99
2022-09-16T23:49:06.194Z,85.66
2022-09-16T23:51:32.768Z,84.90
2022-09-16T23:53:59.641Z,84.62
2022-09-16T23:56:26.748Z,84.53
2022-09-16T23:58:53.956Z,84.54
